sensor_id;sensor_type;location;lat;lon;timestamp;temperature;humidity
11009;DHT22;5557;51.670;7.788;2022-07-29T00:01:03;18.40;1.00
11009;DHT22;5557;51.670;7.788;2022-07-29T00:03:30;18.40;1.00
11009;DHT22;5557;51.670;7.788;2022-07-29T00:05:58;18.40;1.00
11009;DHT22;5557;51.670;7.788;2022-07-29T00:08:26;18.30;1.00
11009;DHT22;5557;51.670;7.788;2022-07-29T00:10:53;18.30;1.00
11009;DHT22;5557;51.670;7.788;2022-07-29T00:13:20;18.30;1.00
11009;DHT22;5557;51.670;7.788;2022-07-29T00:15:58;18.20;1.00
11009;DHT22;5557;51.670;7.788;2022-07-29T00:18:31;18.20;1.00
11009;DHT22;5557;51.670;7.788;2022-07-29T00:20:58;18.20;1.00
11009;DHT22;5557;51.670;7.788;2022-07-29T00:23:25;18.20;1.00
11009;DHT22;5557;51.670;7.788;2022-07-29T00:25:52;18.10;1.00
11009;DHT22;5557;51.670;7.788;2022-07-29T00:28:19;18.10;1.00
11009;DHT22;5557;51.670;7.788;2022-07-29T00:30:47;18.10;1.00
11009;DHT22;5557;51.670;7.788;2022-07-29T00:33:14;18.10;1.00
11009;DHT22;5557;51.670;7.788;2022-07-29T00:35:41;18.10;1.00
11009;DHT22;5557;51.670;7.788;2022-07-29T00:38:15;18.10;1.00
11009;DHT22;5557;51.670;7.788;2022-07-29T00:40:43;18.00;1.00
11009;DHT22;5557;51.670;7.788;2022-07-29T00:43:12;18.10;1.00
11009;DHT22;5557;51.670;7.788;2022-07-29T00:45:43;18.10;1.00
11009;DHT22;5557;51.670;7.788;2022-07-29T00:48:10;18.00;1.00
11009;DHT22;5557;51.670;7.788;2022-07-29T00:50:38;18.10;1.00
11009;DHT22;5557;51.670;7.788;2022-07-29T00:53:07;18.00;1.00
11009;DHT22;5557;51.670;7.788;2022-07-29T00:55:37;18.10;1.00
11009;DHT22;5557;51.670;7.788;2022-07-29T00:58:05;18.00;1.00
11009;DHT22;5557;51.670;7.788;2022-07-29T01:00:34;18.00;1.00
11009;DHT22;5557;51.670;7.788;2022-07-29T01:03:01;18.00;1.00
11009;DHT22;5557;51.670;7.788;2022-07-29T01:05:30;18.00;1.00
11009;DHT22;5557;51.670;7.788;2022-07-29T01:08:17;18.00;1.00
11009;DHT22;5557;51.670;7.788;2022-07-29T01:10:45;18.00;1.00
11009;DHT22;5557;51.670;7.788;2022-07-29T01:13:14;17.90;1.00
11009;DHT22;5557;51.670;7.788;2022-07-29T01:15:51;18.00;1.00
11009;DHT22;5557;51.670;7.788;2022-07-29T01:18:31;17.90;1.00
11009;DHT22;5557;51.670;7.788;2022-07-29T01:21:27;17.90;1.00
11009;DHT22;5557;51.670;7.788;2022-07-29T01:24:03;18.00;1.00
11009;DHT22;5557;51.670;7.788;2022-07-29T01:28:05;18.00;1.00
11009;DHT22;5557;51.670;7.788;2022-07-29T01:29:58;18.00;1.00
11009;DHT22;5557;51.670;7.788;2022-07-29T01:32:33;18.00;1.00
11009;DHT22;5557;51.670;7.788;2022-07-29T01:38:17;18.20;1.00
11009;DHT22;5557;51.670;7.788;2022-07-29T01:41:05;18.30;1.00
11009;DHT22;5557;51.670;7.788;2022-07-29T01:43:46;18.20;1.00
11009;DHT22;5557;51.670;7.788;2022-07-29T01:46:21;18.30;1.00
11009;DHT22;5557;51.670;7.788;2022-07-29T01:48:54;18.40;1.00
11009;DHT22;5557;51.670;7.788;2022-07-29T01:51:39;18.40;1.00
11009;DHT22;5557;51.670;7.788;2022-07-29T01:54:14;18.40;1.00
11009;DHT22;5557;51.670;7.788;2022-07-29T01:56:45;18.40;1.00
11009;DHT22;5557;51.670;7.788;2022-07-29T01:59:14;18.40;1.00
11009;DHT22;5557;51.670;7.788;2022-07-29T02:01:43;18.30;1.00
11009;DHT22;5557;51.670;7.788;2022-07-29T02:04:11;18.30;1.00
11009;DHT22;5557;51.670;7.788;2022-07-29T02:06:58;18.30;1.00
11009;DHT22;5557;51.670;7.788;2022-07-29T02:09:28;18.30;1.00
11009;DHT22;5557;51.670;7.788;2022-07-29T02:11:57;18.30;1.00
11009;DHT22;5557;51.670;7.788;2022-07-29T02:14:26;18.30;1.00
11009;DHT22;5557;51.670;7.788;2022-07-29T02:16:56;18.30;1.00
11009;DHT22;5557;51.670;7.788;2022-07-29T02:19:26;18.30;1.00
11009;DHT22;5557;51.670;7.788;2022-07-29T02:21:54;18.20;1.00
11009;DHT22;5557;51.670;7.788;2022-07-29T02:24:23;18.30;1.00
11009;DHT22;5557;51.670;7.788;2022-07-29T02:26:53;18.20;1.00
11009;DHT22;5557;51.670;7.788;2022-07-29T02:29:23;18.30;1.00
11009;DHT22;5557;51.670;7.788;2022-07-29T02:31:51;18.20;1.00
11009;DHT22;5557;51.670;7.788;2022-07-29T02:34:20;18.20;1.00
11009;DHT22;5557;51.670;7.788;2022-07-29T02:36:48;18.20;1.00
11009;DHT22;5557;51.670;7.788;2022-07-29T02:39:16;18.20;1.00
11009;DHT22;5557;51.670;7.788;2022-07-29T02:41:49;18.10;1.00
11009;DHT22;5557;51.670;7.788;2022-07-29T02:44:19;18.10;1.00
11009;DHT22;5557;51.670;7.788;2022-07-29T02:46:57;18.00;1.00
11009;DHT22;5557;51.670;7.788;2022-07-29T02:49:34;18.10;1.00
11009;DHT22;5557;51.670;7.788;2022-07-29T02:52:08;18.10;1.00
11009;DHT22;5557;51.670;7.788;2022-07-29T02:54:51;18.00;1.00
11009;DHT22;5557;51.670;7.788;2022-07-29T02:57:46;18.00;1.00
11009;DHT22;5557;51.670;7.788;2022-07-29T03:00:21;17.90;1.00
11009;DHT22;5557;51.670;7.788;2022-07-29T03:02:52;18.00;1.00
11009;DHT22;5557;51.670;7.788;2022-07-29T03:05:21;18.00;1.00
11009;DHT22;5557;51.670;7.788;2022-07-29T03:07:55;17.90;1.00
11009;DHT22;5557;51.670;7.788;2022-07-29T03:10:25;18.00;1.00
11009;DHT22;5557;51.670;7.788;2022-07-29T03:12:54;18.00;1.00
11009;DHT22;5557;51.670;7.788;2022-07-29T03:15:22;17.90;1.00
11009;DHT22;5557;51.670;7.788;2022-07-29T03:17:51;17.90;1.00
11009;DHT22;5557;51.670;7.788;2022-07-29T03:20:19;17.90;1.00
11009;DHT22;5557;51.670;7.788;2022-07-29T03:22:46;18.00;1.00
11009;DHT22;5557;51.670;7.788;2022-07-29T03:25:18;17.90;1.00
11009;DHT22;5557;51.670;7.788;2022-07-29T03:27:47;18.00;1.00
11009;DHT22;5557;51.670;7.788;2022-07-29T03:30:15;17.90;1.00
11009;DHT22;5557;51.670;7.788;2022-07-29T03:32:48;18.00;1.00
11009;DHT22;5557;51.670;7.788;2022-07-29T03:35:18;18.00;1.00
11009;DHT22;5557;51.670;7.788;2022-07-29T03:37:46;18.00;1.00
11009;DHT22;5557;51.670;7.788;2022-07-29T03:40:18;18.00;1.00
11009;DHT22;5557;51.670;7.788;2022-07-29T03:42:47;17.90;1.00
11009;DHT22;5557;51.670;7.788;2022-07-29T03:45:17;17.90;1.00
11009;DHT22;5557;51.670;7.788;2022-07-29T03:47:51;17.90;1.00
11009;DHT22;5557;51.670;7.788;2022-07-29T03:50:26;18.00;1.00
11009;DHT22;5557;51.670;7.788;2022-07-29T03:52:54;18.00;1.00
11009;DHT22;5557;51.670;7.788;2022-07-29T03:55:21;18.00;1.00
11009;DHT22;5557;51.670;7.788;2022-07-29T03:57:49;17.90;1.00
11009;DHT22;5557;51.670;7.788;2022-07-29T04:00:17;18.00;1.00
11009;DHT22;5557;51.670;7.788;2022-07-29T04:02:44;17.90;1.00
11009;DHT22;5557;51.670;7.788;2022-07-29T04:05:15;18.00;1.00
11009;DHT22;5557;51.670;7.788;2022-07-29T04:07:46;18.00;1.00
11009;DHT22;5557;51.670;7.788;2022-07-29T04:10:16;18.00;1.00
11009;DHT22;5557;51.670;7.788;2022-07-29T04:12:57;18.00;1.00
11009;DHT22;5557;51.670;7.788;2022-07-29T04:15:24;18.10;1.00
11009;DHT22;5557;51.670;7.788;2022-07-29T04:17:56;18.10;1.00
11009;DHT22;5557;51.670;7.788;2022-07-29T04:20:23;18.10;1.00
11009;DHT22;5557;51.670;7.788;2022-07-29T04:22:50;18.20;1.00
11009;DHT22;5557;51.670;7.788;2022-07-29T04:25:17;18.30;1.00
11009;DHT22;5557;51.670;7.788;2022-07-29T04:27:44;18.30;1.00
11009;DHT22;5557;51.670;7.788;2022-07-29T04:30:31;18.30;1.00
11009;DHT22;5557;51.670;7.788;2022-07-29T04:32:58;18.40;1.00
11009;DHT22;5557;51.670;7.788;2022-07-29T04:35:33;18.40;1.00
11009;DHT22;5557;51.670;7.788;2022-07-29T04:38:05;18.40;1.00
11009;DHT22;5557;51.670;7.788;2022-07-29T04:40:33;18.50;1.00
11009;DHT22;5557;51.670;7.788;2022-07-29T04:43:04;18.50;1.00
11009;DHT22;5557;51.670;7.788;2022-07-29T04:45:31;18.40;1.00
11009;DHT22;5557;51.670;7.788;2022-07-29T04:47:58;18.40;1.00
11009;DHT22;5557;51.670;7.788;2022-07-29T04:50:25;18.40;1.00
11009;DHT22;5557;51.670;7.788;2022-07-29T04:52:52;18.40;1.00
11009;DHT22;5557;51.670;7.788;2022-07-29T04:55:19;18.40;1.00
11009;DHT22;5557;51.670;7.788;2022-07-29T04:57:46;18.40;1.00
11009;DHT22;5557;51.670;7.788;2022-07-29T05:00:13;18.40;1.00
11009;DHT22;5557;51.670;7.788;2022-07-29T05:02:40;18.40;1.00
11009;DHT22;5557;51.670;7.788;2022-07-29T05:05:08;18.50;1.00
11009;DHT22;5557;51.670;7.788;2022-07-29T05:07:35;18.50;1.00
11009;DHT22;5557;51.670;7.788;2022-07-29T05:10:03;18.50;1.00
11009;DHT22;5557;51.670;7.788;2022-07-29T05:12:30;18.60;1.00
11009;DHT22;5557;51.670;7.788;2022-07-29T05:14:57;18.60;1.00
11009;DHT22;5557;51.670;7.788;2022-07-29T05:17:24;18.70;1.00
11009;DHT22;5557;51.670;7.788;2022-07-29T05:19:51;18.80;1.00
11009;DHT22;5557;51.670;7.788;2022-07-29T05:22:21;18.80;1.00
11009;DHT22;5557;51.670;7.788;2022-07-29T05:24:48;18.90;1.00
11009;DHT22;5557;51.670;7.788;2022-07-29T05:27:15;18.90;1.00
11009;DHT22;5557;51.670;7.788;2022-07-29T05:29:42;18.90;1.00
11009;DHT22;5557;51.670;7.788;2022-07-29T05:32:12;19.00;1.00
11009;DHT22;5557;51.670;7.788;2022-07-29T05:34:40;19.00;1.00
11009;DHT22;5557;51.670;7.788;2022-07-29T05:37:18;19.10;1.00
11009;DHT22;5557;51.670;7.788;2022-07-29T05:39:45;19.00;1.00
11009;DHT22;5557;51.670;7.788;2022-07-29T05:42:16;18.90;1.00
11009;DHT22;5557;51.670;7.788;2022-07-29T05:44:42;18.80;1.00
11009;DHT22;5557;51.670;7.788;2022-07-29T05:47:09;18.80;1.00
11009;DHT22;5557;51.670;7.788;2022-07-29T05:49:36;18.70;1.90
11009;DHT22;5557;51.670;7.788;2022-07-29T05:52:04;18.70;1.10
11009;DHT22;5557;51.670;7.788;2022-07-29T05:54:31;18.70;1.60
11009;DHT22;5557;51.670;7.788;2022-07-29T05:56:58;18.70;1.60
11009;DHT22;5557;51.670;7.788;2022-07-29T05:59:25;18.80;1.70
11009;DHT22;5557;51.670;7.788;2022-07-29T06:01:56;19.00;1.10
11009;DHT22;5557;51.670;7.788;2022-07-29T06:04:24;19.10;1.50
11009;DHT22;5557;51.670;7.788;2022-07-29T06:06:51;19.10;1.70
11009;DHT22;5557;51.670;7.788;2022-07-29T06:09:18;19.10;1.00
11009;DHT22;5557;51.670;7.788;2022-07-29T06:11:45;19.30;1.00
11009;DHT22;5557;51.670;7.788;2022-07-29T06:14:12;19.40;1.00
11009;DHT22;5557;51.670;7.788;2022-07-29T06:16:40;19.40;1.00
11009;DHT22;5557;51.670;7.788;2022-07-29T06:19:07;19.40;1.00
11009;DHT22;5557;51.670;7.788;2022-07-29T06:21:35;19.40;1.00
11009;DHT22;5557;51.670;7.788;2022-07-29T06:24:07;19.50;1.00
11009;DHT22;5557;51.670;7.788;2022-07-29T06:26:34;19.50;1.00
11009;DHT22;5557;51.670;7.788;2022-07-29T06:29:06;19.50;1.00
11009;DHT22;5557;51.670;7.788;2022-07-29T06:31:33;19.50;1.00
11009;DHT22;5557;51.670;7.788;2022-07-29T06:34:00;19.40;1.00
11009;DHT22;5557;51.670;7.788;2022-07-29T06:36:29;19.30;1.00
11009;DHT22;5557;51.670;7.788;2022-07-29T06:38:56;19.30;1.00
11009;DHT22;5557;51.670;7.788;2022-07-29T06:41:23;19.40;1.00
11009;DHT22;5557;51.670;7.788;2022-07-29T06:43:50;19.50;1.00
11009;DHT22;5557;51.670;7.788;2022-07-29T06:46:22;19.50;1.00
11009;DHT22;5557;51.670;7.788;2022-07-29T06:48:50;19.50;1.00
11009;DHT22;5557;51.670;7.788;2022-07-29T06:51:19;19.40;1.00
11009;DHT22;5557;51.670;7.788;2022-07-29T06:53:51;19.60;1.00
11009;DHT22;5557;51.670;7.788;2022-07-29T06:56:32;20.10;1.00
11009;DHT22;5557;51.670;7.788;2022-07-29T06:59:09;20.60;1.00
11009;DHT22;5557;51.670;7.788;2022-07-29T07:01:37;21.00;1.00
11009;DHT22;5557;51.670;7.788;2022-07-29T07:04:05;21.20;1.00
11009;DHT22;5557;51.670;7.788;2022-07-29T07:06:32;21.10;1.00
11009;DHT22;5557;51.670;7.788;2022-07-29T07:08:59;21.10;1.00
11009;DHT22;5557;51.670;7.788;2022-07-29T07:11:26;21.30;1.00
11009;DHT22;5557;51.670;7.788;2022-07-29T07:13:53;21.60;1.00
11009;DHT22;5557;51.670;7.788;2022-07-29T07:16:28;22.00;1.00
11009;DHT22;5557;51.670;7.788;2022-07-29T07:18:55;22.50;1.00
11009;DHT22;5557;51.670;7.788;2022-07-29T07:21:22;22.80;1.00
11009;DHT22;5557;51.670;7.788;2022-07-29T07:23:49;22.90;1.00
11009;DHT22;5557;51.670;7.788;2022-07-29T07:26:16;22.60;1.00
11009;DHT22;5557;51.670;7.788;2022-07-29T07:28:42;22.40;1.00
11009;DHT22;5557;51.670;7.788;2022-07-29T07:31:10;22.60;1.00
11009;DHT22;5557;51.670;7.788;2022-07-29T07:33:37;22.70;1.00
11009;DHT22;5557;51.670;7.788;2022-07-29T07:36:05;22.50;1.00
11009;DHT22;5557;51.670;7.788;2022-07-29T07:38:32;22.20;1.00
11009;DHT22;5557;51.670;7.788;2022-07-29T07:41:01;22.00;1.00
11009;DHT22;5557;51.670;7.788;2022-07-29T07:43:28;22.00;1.00
11009;DHT22;5557;51.670;7.788;2022-07-29T07:45:55;22.20;1.00
11009;DHT22;5557;51.670;7.788;2022-07-29T07:48:22;22.40;1.00
11009;DHT22;5557;51.670;7.788;2022-07-29T07:50:49;22.70;1.00
11009;DHT22;5557;51.670;7.788;2022-07-29T07:53:17;23.50;1.00
11009;DHT22;5557;51.670;7.788;2022-07-29T07:55:44;25.10;1.00
11009;DHT22;5557;51.670;7.788;2022-07-29T07:58:32;25.70;1.00
11009;DHT22;5557;51.670;7.788;2022-07-29T08:00:59;26.00;1.00
11009;DHT22;5557;51.670;7.788;2022-07-29T08:03:26;26.70;1.00
11009;DHT22;5557;51.670;7.788;2022-07-29T08:05:53;26.30;1.00
11009;DHT22;5557;51.670;7.788;2022-07-29T08:08:22;26.90;1.00
11009;DHT22;5557;51.670;7.788;2022-07-29T08:10:48;27.10;1.00
11009;DHT22;5557;51.670;7.788;2022-07-29T08:13:20;27.50;1.00
11009;DHT22;5557;51.670;7.788;2022-07-29T08:15:47;27.60;1.00
11009;DHT22;5557;51.670;7.788;2022-07-29T08:18:25;27.50;1.00
11009;DHT22;5557;51.670;7.788;2022-07-29T08:20:52;27.00;1.00
11009;DHT22;5557;51.670;7.788;2022-07-29T08:23:19;27.60;1.00
11009;DHT22;5557;51.670;7.788;2022-07-29T08:25:46;28.00;1.00
11009;DHT22;5557;51.670;7.788;2022-07-29T08:28:16;28.90;1.00
11009;DHT22;5557;51.670;7.788;2022-07-29T08:30:43;29.70;1.00
11009;DHT22;5557;51.670;7.788;2022-07-29T08:33:11;29.20;1.00
11009;DHT22;5557;51.670;7.788;2022-07-29T08:35:40;28.10;1.00
11009;DHT22;5557;51.670;7.788;2022-07-29T08:38:07;27.00;1.00
11009;DHT22;5557;51.670;7.788;2022-07-29T08:40:34;26.40;1.00
11009;DHT22;5557;51.670;7.788;2022-07-29T08:43:08;26.20;1.00
11009;DHT22;5557;51.670;7.788;2022-07-29T08:45:43;26.50;1.00
11009;DHT22;5557;51.670;7.788;2022-07-29T08:48:16;26.80;1.00
11009;DHT22;5557;51.670;7.788;2022-07-29T08:50:44;27.00;1.00
11009;DHT22;5557;51.670;7.788;2022-07-29T08:53:14;27.60;1.00
11009;DHT22;5557;51.670;7.788;2022-07-29T08:55:46;28.60;1.00
11009;DHT22;5557;51.670;7.788;2022-07-29T08:58:14;29.40;1.00
11009;DHT22;5557;51.670;7.788;2022-07-29T09:00:44;29.00;1.00
11009;DHT22;5557;51.670;7.788;2022-07-29T09:03:15;28.90;1.00
11009;DHT22;5557;51.670;7.788;2022-07-29T09:05:43;28.90;1.00
11009;DHT22;5557;51.670;7.788;2022-07-29T09:08:17;29.00;1.00
11009;DHT22;5557;51.670;7.788;2022-07-29T09:10:44;29.30;1.00
11009;DHT22;5557;51.670;7.788;2022-07-29T09:13:11;29.50;1.00
11009;DHT22;5557;51.670;7.788;2022-07-29T09:15:38;29.40;1.00
11009;DHT22;5557;51.670;7.788;2022-07-29T09:18:05;29.20;1.00
11009;DHT22;5557;51.670;7.788;2022-07-29T09:20:32;30.00;1.00
11009;DHT22;5557;51.670;7.788;2022-07-29T09:23:18;30.80;1.00
11009;DHT22;5557;51.670;7.788;2022-07-29T09:25:50;31.30;1.00
11009;DHT22;5557;51.670;7.788;2022-07-29T09:28:18;32.30;1.00
11009;DHT22;5557;51.670;7.788;2022-07-29T09:30:52;32.70;1.00
11009;DHT22;5557;51.670;7.788;2022-07-29T09:33:21;32.40;1.00
11009;DHT22;5557;51.670;7.788;2022-07-29T09:36:08;31.10;1.00
11009;DHT22;5557;51.670;7.788;2022-07-29T09:38:36;31.20;1.00
11009;DHT22;5557;51.670;7.788;2022-07-29T09:41:05;31.90;1.00
11009;DHT22;5557;51.670;7.788;2022-07-29T09:43:34;31.70;1.00
11009;DHT22;5557;51.670;7.788;2022-07-29T09:46:12;31.90;1.00
11009;DHT22;5557;51.670;7.788;2022-07-29T09:48:39;31.30;1.00
11009;DHT22;5557;51.670;7.788;2022-07-29T09:51:19;31.60;1.00
11009;DHT22;5557;51.670;7.788;2022-07-29T09:54:25;30.90;1.00
11009;DHT22;5557;51.670;7.788;2022-07-29T09:56:55;29.80;1.00
11009;DHT22;5557;51.670;7.788;2022-07-29T09:59:22;29.10;1.00
11009;DHT22;5557;51.670;7.788;2022-07-29T10:01:53;28.30;1.00
11009;DHT22;5557;51.670;7.788;2022-07-29T10:04:21;28.50;1.00
11009;DHT22;5557;51.670;7.788;2022-07-29T10:07:01;28.60;1.00
11009;DHT22;5557;51.670;7.788;2022-07-29T10:09:32;29.10;1.00
11009;DHT22;5557;51.670;7.788;2022-07-29T10:12:17;29.10;1.00
11009;DHT22;5557;51.670;7.788;2022-07-29T10:14:44;28.90;1.00
11009;DHT22;5557;51.670;7.788;2022-07-29T10:17:11;29.10;1.00
11009;DHT22;5557;51.670;7.788;2022-07-29T10:19:39;29.00;1.00
11009;DHT22;5557;51.670;7.788;2022-07-29T10:22:08;28.40;1.00
11009;DHT22;5557;51.670;7.788;2022-07-29T10:24:37;27.90;1.00
11009;DHT22;5557;51.670;7.788;2022-07-29T10:27:06;27.70;1.00
11009;DHT22;5557;51.670;7.788;2022-07-29T10:29:33;28.30;1.00
11009;DHT22;5557;51.670;7.788;2022-07-29T10:35:40;28.90;1.00
11009;DHT22;5557;51.670;7.788;2022-07-29T10:41:39;28.90;1.00
11009;DHT22;5557;51.670;7.788;2022-07-29T10:44:22;28.40;1.00
11009;DHT22;5557;51.670;7.788;2022-07-29T10:46:51;28.10;1.00
11009;DHT22;5557;51.670;7.788;2022-07-29T10:49:22;28.00;1.00
11009;DHT22;5557;51.670;7.788;2022-07-29T10:52:07;27.90;1.00
11009;DHT22;5557;51.670;7.788;2022-07-29T10:54:43;27.50;1.00
11009;DHT22;5557;51.670;7.788;2022-07-29T10:57:31;27.30;1.00
11009;DHT22;5557;51.670;7.788;2022-07-29T11:00:29;27.20;1.00
11009;DHT22;5557;51.670;7.788;2022-07-29T11:02:56;27.20;1.00
11009;DHT22;5557;51.670;7.788;2022-07-29T11:05:25;27.00;1.00
11009;DHT22;5557;51.670;7.788;2022-07-29T11:08:19;26.80;1.00
11009;DHT22;5557;51.670;7.788;2022-07-29T11:14:17;26.30;1.00
11009;DHT22;5557;51.670;7.788;2022-07-29T11:17:02;26.20;1.00
11009;DHT22;5557;51.670;7.788;2022-07-29T11:19:32;25.90;1.00
11009;DHT22;5557;51.670;7.788;2022-07-29T11:22:01;25.50;1.00
11009;DHT22;5557;51.670;7.788;2022-07-29T11:24:29;25.30;1.00
11009;DHT22;5557;51.670;7.788;2022-07-29T11:29:58;24.80;1.00
11009;DHT22;5557;51.670;7.788;2022-07-29T11:32:40;24.60;1.00
11009;DHT22;5557;51.670;7.788;2022-07-29T11:35:22;24.30;1.00
11009;DHT22;5557;51.670;7.788;2022-07-29T11:38:27;23.90;1.00
11009;DHT22;5557;51.670;7.788;2022-07-29T11:41:36;23.60;1.00
11009;DHT22;5557;51.670;7.788;2022-07-29T11:44:05;23.40;1.00
11009;DHT22;5557;51.670;7.788;2022-07-29T11:46:48;23.40;1.00
11009;DHT22;5557;51.670;7.788;2022-07-29T11:49:34;23.30;1.00
11009;DHT22;5557;51.670;7.788;2022-07-29T11:52:02;23.10;1.00
11009;DHT22;5557;51.670;7.788;2022-07-29T11:54:32;23.10;1.00
11009;DHT22;5557;51.670;7.788;2022-07-29T11:57:20;23.10;1.00
11009;DHT22;5557;51.670;7.788;2022-07-29T11:59:47;23.00;1.00
11009;DHT22;5557;51.670;7.788;2022-07-29T12:02:16;22.70;1.00
11009;DHT22;5557;51.670;7.788;2022-07-29T12:05:03;22.50;1.00
11009;DHT22;5557;51.670;7.788;2022-07-29T12:07:51;22.50;1.00
11009;DHT22;5557;51.670;7.788;2022-07-29T12:10:18;22.40;1.00
11009;DHT22;5557;51.670;7.788;2022-07-29T12:12:56;22.30;1.00
11009;DHT22;5557;51.670;7.788;2022-07-29T12:15:24;22.20;1.00
11009;DHT22;5557;51.670;7.788;2022-07-29T12:18:14;22.20;3.70
11009;DHT22;5557;51.670;7.788;2022-07-29T12:20:44;22.10;4.20
11009;DHT22;5557;51.670;7.788;2022-07-29T12:23:11;22.00;4.20
11009;DHT22;5557;51.670;7.788;2022-07-29T12:25:43;22.00;4.60
11009;DHT22;5557;51.670;7.788;2022-07-29T12:28:15;21.90;4.50
11009;DHT22;5557;51.670;7.788;2022-07-29T12:30:52;21.80;4.10
11009;DHT22;5557;51.670;7.788;2022-07-29T12:33:25;21.80;4.20
11009;DHT22;5557;51.670;7.788;2022-07-29T12:35:54;21.80;4.50
11009;DHT22;5557;51.670;7.788;2022-07-29T12:38:32;21.80;5.00
11009;DHT22;5557;51.670;7.788;2022-07-29T12:41:01;21.90;4.40
11009;DHT22;5557;51.670;7.788;2022-07-29T12:43:30;21.80;4.40
11009;DHT22;5557;51.670;7.788;2022-07-29T12:45:57;21.90;4.50
11009;DHT22;5557;51.670;7.788;2022-07-29T12:48:38;22.00;3.70
11009;DHT22;5557;51.670;7.788;2022-07-29T12:51:07;22.00;4.90
11009;DHT22;5557;51.670;7.788;2022-07-29T12:53:36;21.80;5.10
11009;DHT22;5557;51.670;7.788;2022-07-29T12:56:04;21.60;6.70
11009;DHT22;5557;51.670;7.788;2022-07-29T12:58:51;21.50;6.10
11009;DHT22;5557;51.670;7.788;2022-07-29T13:01:20;21.40;8.00
11009;DHT22;5557;51.670;7.788;2022-07-29T13:03:55;21.30;8.00
11009;DHT22;5557;51.670;7.788;2022-07-29T13:06:35;21.30;8.00
11009;DHT22;5557;51.670;7.788;2022-07-29T13:09:11;21.00;10.20
11009;DHT22;5557;51.670;7.788;2022-07-29T13:11:45;20.80;11.30
11009;DHT22;5557;51.670;7.788;2022-07-29T13:17:05;20.80;11.00
11009;DHT22;5557;51.670;7.788;2022-07-29T13:19:41;20.70;11.30
11009;DHT22;5557;51.670;7.788;2022-07-29T13:22:10;20.70;10.80
11009;DHT22;5557;51.670;7.788;2022-07-29T13:24:55;20.70;10.80
11009;DHT22;5557;51.670;7.788;2022-07-29T13:27:25;20.90;10.80
11009;DHT22;5557;51.670;7.788;2022-07-29T13:29:53;20.90;9.90
11009;DHT22;5557;51.670;7.788;2022-07-29T13:32:21;21.10;8.50
11009;DHT22;5557;51.670;7.788;2022-07-29T13:34:55;21.40;8.10
11009;DHT22;5557;51.670;7.788;2022-07-29T13:37:23;21.40;7.10
11009;DHT22;5557;51.670;7.788;2022-07-29T13:39:50;21.60;6.80
11009;DHT22;5557;51.670;7.788;2022-07-29T13:42:20;21.70;6.20
11009;DHT22;5557;51.670;7.788;2022-07-29T13:44:47;21.60;7.10
11009;DHT22;5557;51.670;7.788;2022-07-29T13:47:18;21.50;6.80
11009;DHT22;5557;51.670;7.788;2022-07-29T13:49:45;21.70;6.50
11009;DHT22;5557;51.670;7.788;2022-07-29T13:52:12;21.80;6.50
11009;DHT22;5557;51.670;7.788;2022-07-29T13:54:39;21.90;6.40
11009;DHT22;5557;51.670;7.788;2022-07-29T13:57:09;22.20;4.90
11009;DHT22;5557;51.670;7.788;2022-07-29T13:59:40;22.50;3.10
11009;DHT22;5557;51.670;7.788;2022-07-29T14:02:09;22.70;3.40
11009;DHT22;5557;51.670;7.788;2022-07-29T14:04:37;22.70;3.20
11009;DHT22;5557;51.670;7.788;2022-07-29T14:07:06;23.00;3.70
11009;DHT22;5557;51.670;7.788;2022-07-29T14:09:33;23.20;3.60
11009;DHT22;5557;51.670;7.788;2022-07-29T14:12:07;23.50;2.90
11009;DHT22;5557;51.670;7.788;2022-07-29T14:14:35;23.70;3.00
11009;DHT22;5557;51.670;7.788;2022-07-29T14:17:04;23.70;2.90
11009;DHT22;5557;51.670;7.788;2022-07-29T14:19:34;23.50;3.10
11009;DHT22;5557;51.670;7.788;2022-07-29T14:22:06;23.30;3.80
11009;DHT22;5557;51.670;7.788;2022-07-29T14:24:35;23.00;5.40
11009;DHT22;5557;51.670;7.788;2022-07-29T14:27:03;23.00;6.20
11009;DHT22;5557;51.670;7.788;2022-07-29T14:29:30;23.00;7.70
11009;DHT22;5557;51.670;7.788;2022-07-29T14:32:07;23.00;6.50
11009;DHT22;5557;51.670;7.788;2022-07-29T14:34:36;23.10;7.00
11009;DHT22;5557;51.670;7.788;2022-07-29T14:37:04;23.10;6.90
11009;DHT22;5557;51.670;7.788;2022-07-29T14:39:41;23.00;7.80
11009;DHT22;5557;51.670;7.788;2022-07-29T14:42:10;22.80;9.00
11009;DHT22;5557;51.670;7.788;2022-07-29T14:44:39;22.80;9.90
11009;DHT22;5557;51.670;7.788;2022-07-29T14:47:07;23.00;9.40
11009;DHT22;5557;51.670;7.788;2022-07-29T14:49:34;22.90;9.10
11009;DHT22;5557;51.670;7.788;2022-07-29T14:52:02;23.00;9.20
11009;DHT22;5557;51.670;7.788;2022-07-29T14:54:29;23.10;9.30
11009;DHT22;5557;51.670;7.788;2022-07-29T14:56:59;23.30;7.70
11009;DHT22;5557;51.670;7.788;2022-07-29T14:59:26;23.50;7.20
11009;DHT22;5557;51.670;7.788;2022-07-29T15:01:53;23.70;6.90
11009;DHT22;5557;51.670;7.788;2022-07-29T15:04:20;23.80;5.10
11009;DHT22;5557;51.670;7.788;2022-07-29T15:06:48;23.90;5.50
11009;DHT22;5557;51.670;7.788;2022-07-29T15:09:15;23.90;5.10
11009;DHT22;5557;51.670;7.788;2022-07-29T15:11:42;24.00;4.70
11009;DHT22;5557;51.670;7.788;2022-07-29T15:14:09;24.00;4.40
11009;DHT22;5557;51.670;7.788;2022-07-29T15:16:37;24.00;4.00
11009;DHT22;5557;51.670;7.788;2022-07-29T15:19:09;24.20;3.80
11009;DHT22;5557;51.670;7.788;2022-07-29T15:21:37;24.40;3.50
11009;DHT22;5557;51.670;7.788;2022-07-29T15:24:15;24.30;3.10
11009;DHT22;5557;51.670;7.788;2022-07-29T15:26:43;24.00;3.40
11009;DHT22;5557;51.670;7.788;2022-07-29T15:29:10;23.80;4.50
11009;DHT22;5557;51.670;7.788;2022-07-29T15:31:37;23.80;3.60
11009;DHT22;5557;51.670;7.788;2022-07-29T15:34:06;23.80;3.90
11009;DHT22;5557;51.670;7.788;2022-07-29T15:36:33;23.90;4.00
11009;DHT22;5557;51.670;7.788;2022-07-29T15:39:18;24.00;3.80
11009;DHT22;5557;51.670;7.788;2022-07-29T15:41:45;23.90;3.30
11009;DHT22;5557;51.670;7.788;2022-07-29T15:44:12;24.00;3.80
11009;DHT22;5557;51.670;7.788;2022-07-29T15:46:39;23.90;3.20
11009;DHT22;5557;51.670;7.788;2022-07-29T15:49:26;23.80;3.90
11009;DHT22;5557;51.670;7.788;2022-07-29T15:52:16;23.80;3.10
11009;DHT22;5557;51.670;7.788;2022-07-29T15:54:55;23.70;3.40
11009;DHT22;5557;51.670;7.788;2022-07-29T15:57:24;23.80;3.40
11009;DHT22;5557;51.670;7.788;2022-07-29T15:59:51;23.90;2.90
11009;DHT22;5557;51.670;7.788;2022-07-29T16:02:18;23.90;2.70
11009;DHT22;5557;51.670;7.788;2022-07-29T16:04:45;24.00;3.00
11009;DHT22;5557;51.670;7.788;2022-07-29T16:07:13;24.10;2.00
11009;DHT22;5557;51.670;7.788;2022-07-29T16:09:41;24.10;1.00
11009;DHT22;5557;51.670;7.788;2022-07-29T16:12:08;23.90;1.00
11009;DHT22;5557;51.670;7.788;2022-07-29T16:14:41;23.80;1.30
11009;DHT22;5557;51.670;7.788;2022-07-29T16:17:08;23.90;1.70
11009;DHT22;5557;51.670;7.788;2022-07-29T16:19:41;23.90;1.20
11009;DHT22;5557;51.670;7.788;2022-07-29T16:22:09;23.90;1.70
11009;DHT22;5557;51.670;7.788;2022-07-29T16:24:36;23.80;1.10
11009;DHT22;5557;51.670;7.788;2022-07-29T16:27:04;23.80;1.10
11009;DHT22;5557;51.670;7.788;2022-07-29T16:29:35;23.70;1.60
11009;DHT22;5557;51.670;7.788;2022-07-29T16:32:04;23.70;2.10
11009;DHT22;5557;51.670;7.788;2022-07-29T16:34:32;23.60;2.10
11009;DHT22;5557;51.670;7.788;2022-07-29T16:36:59;23.50;2.10
11009;DHT22;5557;51.670;7.788;2022-07-29T16:39:26;23.40;2.20
11009;DHT22;5557;51.670;7.788;2022-07-29T16:41:53;23.50;1.70
11009;DHT22;5557;51.670;7.788;2022-07-29T16:44:26;23.60;1.00
11009;DHT22;5557;51.670;7.788;2022-07-29T16:46:54;23.70;1.00